This is the latest recevied weather packets stored in our database for station/object BMCB-24. If no packets are shown the sender has not sent any weather packets the latest 10 day(s).
| Time | Temp. | Humidity | Pressure | Rain* | Wind** | Luminosity | Snow |
|---|---|---|---|---|---|---|---|
| 1777884062 | 12.78° C | 85% | 1015 hPa | 0 mm | - | 80 W/m² | - |
| 1777883461 | 12.78° C | 85% | 1014.8 hPa | 0 mm | - | 106 W/m² | - |
| 1777880458 | 12.22° C | 83% | 1014.8 hPa | 0 mm | - | 200 W/m² | - |
| 1777878057 | 11.67° C | 82% | 1014.6 hPa | 0 mm | - | 176 W/m² | - |
| 1777876859 | 11.11° C | 86% | 1014.5 hPa | 0 mm | - | 104 W/m² | - |
| 1777874459 | 10° C | 89% | 1014.6 hPa | 0 mm | - | 108 W/m² | - |
| 1777870857 | 7.22° C | 10% | 1015 hPa | 0 mm | - | - | - |
| 1777869659 | 5.56° C | 10% | 1015.1 hPa | 0 mm | - | - | - |
| 1777869057 | 5.56° C | 10% | 1015.2 hPa | 0 mm | - | - | - |
| 1777867856 | 5.56° C | 10% | 1015.2 hPa | 0 mm | - | - | - |
| 1777866656 | 5.56° C | 10% | 1015.1 hPa | 0 mm | - | - | - |
| 1777861855 | 5° C | 10% | 1015.1 hPa | 0 mm | - | - | - |
| 1777860056 | 5.56° C | 10% | 1015.2 hPa | 0 mm | - | - | - |
| 1777855857 | 6.11° C | 10% | 1015.2 hPa | 0 mm | - | - | - |
| 1777854656 | 6.67° C | 10% | 1015.2 hPa | 0 mm | - | - | - |
| 1777851669 | 6.67° C | 99% | 1014.9 hPa | 0 mm | - | 0 W/m² | - |
| 1777848068 | 6.67° C | 99% | 1015.3 hPa | 0 mm | - | 0 W/m² | - |
| 1777845072 | 7.22° C | 98% | 1015 hPa | 0 mm | - | 0 W/m² | - |
| 1777841470 | 8.33° C | 98% | 1014.9 hPa | 0 mm | - | 0 W/m² | - |
| 1777838471 | 8.89° C | 96% | 1014.8 hPa | 0 mm | - | 0 W/m² | - |
| 1777836064 | 10° C | 92% | 1014.6 hPa | 0 mm | - | 0 W/m² | - |
| 1777834869 | 11.67° C | 87% | 1014.3 hPa | 0 mm | - | 4 W/m² | - |
| 1777832469 | 13.33° C | 82% | 1013.8 hPa | 0 mm | - | 28 W/m² | - |
| 1777831261 | 13.89° C | 82% | 1013.6 hPa | 0 mm | - | 64 W/m² | - |
| 1777830662 | 13.89° C | 81% | 1013.6 hPa | 0 mm | - | 72 W/m² | - |
* Rain latest hour (hover to see other rain measurements)
** Current wind speed in m/s (hover to see current wind gust speed)